Contact.

Ici la base.

Implantée sur l’aérodrome de Reims-Prunay, Fly&Fun et ses membres profitent de la région champenoise pour voler dans un cadre exceptionnel et partager cette ferveur commune autour de l’aéronautique.

ouvrir google map

Social Wall.

Vivamus sagittis lacus vel augue laoreet rutrum faucibus dolor auctor. Duis mollis, est non commodo luctu.

Facebook.

This message is only visible to admins:
Unable to display Facebook posts

Error: (#10) This endpoint requires the 'manage_pages' or 'pages_read_engagement' permission or the 'Page Public Content Access' feature. Refer to https://developers.facebook.com/docs/apps/review/login-permissions#manage-pages and https://developers.facebook.com/docs/apps/review/feature#reference-PAGES_ACCESS for details.
Type: OAuthException
Code: 10
Click here to Troubleshoot.
Instagram.
This error message is only visible to WordPress admins
This endpoint has been retired

Error: No posts found.

Make sure this account has posts available on instagram.com.

METAR :

LFQA 060130Z AUTO 09005KT CAVOK M01/M02 Q0998


vue en direct sur l'aérodrome
mentions légales politique de confidentialité
Cochet Concept
cx